Airfield :
LOGIN :

Register | Disclaimer

   EN    FR    IT 

 










Legend :    VFR   Marginal VFR   IFR   Intensive IFR   Very Intensive IFR
Visi :
Ceiling :
>= 8 km
>= 3000ft
5 to 8 km
1000 to 3000 ft
1500m to 5 km
500 to 1000 ft
800 to 1500m
200 to 500 ft
< 800m
< 200 ft
Symbols :   Thunderstorms  Fog  Heavy snow  Heavy precipitations  Wind > 20 kt
SIGMETs :     Misc.  Thunderstorms  Icing  Turbulence  Mountain Waves  Volcanic Ashes







- Airport Elevation : 7 ft
- IATA code : XHE
- Download approach charts


LFTH - Hyeres

CURRENT METAR :
  • 192000Z AUTO 07011KT 030V090 CAVOK 19/15 Q1014 TEMPO 07020G30KT

EXPIRED METARs :
  • 191930Z AUTO 05009KT CAVOK 18/14 Q1014 TEMPO 07020G30KT
  • 191900Z AUTO 05009KT CAVOK 19/14 Q1014 TEMPO 07020G30KT
  • 191830Z AUTO 05010KT CAVOK 19/14 Q1014 TEMPO 07020G30KT
  • 191800Z AUTO 05010KT CAVOK 19/14 Q1014 TEMPO 07020G30KT
  • 191730Z AUTO 07011KT CAVOK 19/14 Q1014 TEMPO 07020G30KT

TAF TAF LFTH
Valid from the 19 at 15:00 until the 20 at 15:00 UTC


191400Z 1915/2015 09015G25KT CAVOK
TEMPO 1915/1923 07020G30KT SCT025
BECMG 2006/2008 09010KT
No reported NOTAMs for that airfield.
1 SIGMET reported for the Marseille FIR (LFMM) :
 
Embedded thunderstorms
LFMM SIGMET 14 VALID 191900/192100 LFPW
LFMM MARSEILLE FIR/UIR EMBD TS OBS WI N3900 E00700 - N3900 E00430 - N4200 E00430 - N4215 E00230 - N4345 E00245 - N4345 E00300 - N4115 E00600 TOP FL370 STNR NC=



MET'MAP, your aeronautical weather chart ! - Copyright ORBIFLY December 2007 - Disclaimer

ORBIFLY MET'MAP TEAM :

Programming & Development : Alexandra Zaïnal
Concept & Development : Baudouin d'Aumeries
Co-Development & Prog : Marc-Olivier Méhu
Technical & hardware support : Manuel Goepfert

Contact : metmap@orbifly.com




SOURCES & CREDITS :

   NOAA